Time;durP1;ratioP1;P1;durP2;ratioP2;P2;SDS_P1;SDS_P2;PMS_P1;PMS_P2;Temp;Humidity;BMP_temperature;BMP_pressure;BME280_temperature;BME280_humidity;BME280_pressure;Samples;Min_cycle;Max_cycle;Signal;HPM_P1;HPM_P2
2023/04/16 00:02:21;;;;;;;19.75;5.60;;;;;;;7.43;100.00;102006.66;5073153;28;20063;-71
2023/04/16 00:04:47;;;;;;;20.00;5.78;;;;;;;7.47;100.00;102007.66;5072524;28;20395;-72
2023/04/16 00:07:12;;;;;;;19.58;5.72;;;;;;;7.42;100.00;102009.25;5072848;28;20035;-71
2023/04/16 00:09:38;;;;;;;18.55;5.72;;;;;;;7.41;100.00;102008.38;5072818;28;20035;-71
2023/04/16 00:12:03;;;;;;;20.60;5.72;;;;;;;7.45;100.00;102009.34;5072955;28;20036;-71
2023/04/16 00:14:29;;;;;;;20.35;5.97;;;;;;;7.34;100.00;102011.63;5072724;28;20025;-71
2023/04/16 00:16:54;;;;;;;18.75;6.20;;;;;;;7.28;100.00;102014.91;5072668;28;20033;-71
2023/04/16 00:19:19;;;;;;;21.75;5.78;;;;;;;7.33;100.00;102013.31;5072884;28;20433;-70
2023/04/16 00:21:45;;;;;;;20.05;5.90;;;;;;;7.40;100.00;102008.31;5072693;28;20024;-71
2023/04/16 00:24:10;;;;;;;19.40;5.93;;;;;;;7.45;100.00;102012.00;5072922;28;20023;-70
2023/04/16 00:26:35;;;;;;;19.20;5.95;;;;;;;7.41;100.00;102013.63;5072772;28;20036;-72
2023/04/16 00:29:01;;;;;;;19.70;6.13;;;;;;;7.41;100.00;102008.38;5072630;28;20468;-73
2023/04/16 00:31:31;;;;;;;21.15;6.57;;;;;;;7.42;100.00;102006.63;5071553;28;20032;-69
2023/04/16 00:33:57;;;;;;;21.05;6.10;;;;;;;7.35;100.00;102012.50;5072583;28;20387;-70
2023/04/16 00:36:23;;;;;;;20.63;6.55;;;;;;;7.42;100.00;102009.25;5073036;28;20032;-70
2023/04/16 00:38:49;;;;;;;20.15;6.28;;;;;;;7.41;100.00;102017.97;5072878;28;20426;-69
2023/04/16 00:41:14;;;;;;;20.40;6.55;;;;;;;7.36;100.00;102009.03;5072486;28;20029;-70
2023/04/16 00:43:40;;;;;;;21.77;6.63;;;;;;;7.39;100.00;102009.16;5072529;28;20032;-71
2023/04/16 00:46:08;;;;;;;20.90;6.60;;;;;;;7.39;100.00;102007.41;5072428;28;20499;-69
2023/04/16 00:48:36;;;;;;;19.45;6.55;;;;;;;7.43;100.00;102000.53;5072388;28;20039;-70
2023/04/16 00:51:04;;;;;;;21.33;7.25;;;;;;;7.44;100.00;102007.56;5072331;28;20031;-73
2023/04/16 00:53:30;;;;;;;22.25;7.43;;;;;;;7.45;100.00;102004.09;5072525;28;20059;-72
2023/04/16 00:55:56;;;;;;;21.33;7.50;;;;;;;7.44;100.00;102010.19;5072299;28;20032;-71
2023/04/16 00:58:22;;;;;;;20.83;7.03;;;;;;;7.41;100.00;102010.06;5072307;28;20033;-71
2023/04/16 01:00:47;;;;;;;20.70;7.30;;;;;;;7.46;100.00;102004.16;5072488;28;20085;-72
2023/04/16 01:03:13;;;;;;;22.35;7.30;;;;;;;7.46;100.00;102012.03;5072303;28;20037;-71
2023/04/16 01:05:39;;;;;;;21.42;7.32;;;;;;;7.45;100.00;102006.72;5072265;28;20037;-71
2023/04/16 01:08:05;;;;;;;19.95;7.93;;;;;;;7.54;100.00;102011.41;5072456;28;20036;-72
2023/04/16 01:10:30;;;;;;;22.20;7.85;;;;;;;7.50;100.00;102008.69;5072177;28;20028;-71
2023/04/16 01:12:55;;;;;;;21.98;8.05;;;;;;;7.52;100.00;102006.09;5072156;28;20109;-72
2023/04/16 01:15:21;;;;;;;21.95;8.18;;;;;;;7.52;100.00;102006.09;5072385;28;20021;-72
2023/04/16 01:17:46;;;;;;;22.63;8.00;;;;;;;7.56;100.00;102007.09;5075860;28;20074;-72
2023/04/16 01:20:12;;;;;;;22.27;8.25;;;;;;;7.49;100.00;102000.72;5075982;28;20036;-72
2023/04/16 01:22:37;;;;;;;22.13;8.25;;;;;;;7.55;100.00;102005.31;5070872;28;20025;-72
2023/04/16 01:25:02;;;;;;;23.42;8.73;;;;;;;7.47;100.00;102000.69;5075883;28;20037;-72
2023/04/16 01:27:28;;;;;;;21.90;8.80;;;;;;;7.53;100.00;102002.63;5076061;28;20033;-72
2023/04/16 01:29:55;;;;;;;20.95;8.70;;;;;;;7.62;100.00;102004.69;5076028;28;20028;-72
2023/04/16 01:32:20;;;;;;;21.55;8.82;;;;;;;7.50;100.00;102005.16;5074482;28;20395;-72
2023/04/16 01:34:46;;;;;;;22.30;9.00;;;;;;;7.55;100.00;102000.94;5075857;28;20035;-72
2023/04/16 01:37:11;;;;;;;21.73;9.27;;;;;;;7.56;100.00;102009.72;5075641;28;20464;-73
2023/04/16 01:39:36;;;;;;;21.95;8.95;;;;;;;7.63;100.00;102014.34;5075471;28;20113;-72
2023/04/16 01:42:02;;;;;;;23.08;9.02;;;;;;;7.65;100.00;102010.94;5075772;28;20047;-72
2023/04/16 01:44:27;;;;;;;21.90;9.30;;;;;;;7.58;100.00;102013.31;5075527;28;20111;-72
2023/04/16 01:46:53;;;;;;;20.95;9.25;;;;;;;7.63;100.00;102012.66;5075268;28;20063;-72
2023/04/16 01:49:18;;;;;;;22.50;9.80;;;;;;;7.57;100.00;102011.53;5075616;28;20115;-68
2023/04/16 01:51:44;;;;;;;23.00;9.70;;;;;;;7.59;100.00;102013.38;5075359;28;20025;-72
2023/04/16 01:54:09;;;;;;;22.63;9.82;;;;;;;7.56;100.00;102013.28;5075496;28;20021;-70
2023/04/16 01:56:34;;;;;;;23.08;10.15;;;;;;;7.47;100.00;102012.91;5075463;28;20145;-72
2023/04/16 01:59:00;;;;;;;22.30;10.25;;;;;;;7.53;100.00;102018.44;5075201;28;20068;-72
2023/04/16 02:01:25;;;;;;;22.55;10.60;;;;;;;7.51;100.00;102014.81;5075223;28;20059;-72
2023/04/16 02:03:52;;;;;;;23.95;10.32;;;;;;;7.57;100.00;102015.06;5075353;28;20112;-71
2023/04/16 02:06:17;;;;;;;22.38;10.68;;;;;;;7.47;100.00;102012.91;5075119;28;20025;-72
2023/04/16 02:08:43;;;;;;;21.58;10.85;;;;;;;7.53;100.00;102010.53;5075354;28;20047;-71
2023/04/16 02:11:08;;;;;;;23.48;10.65;;;;;;;7.55;100.00;102010.59;5075276;28;20391;-72
2023/04/16 02:13:34;;;;;;;21.80;10.45;;;;;;;7.55;100.00;102007.94;5074953;28;20387;-72
2023/04/16 02:15:59;;;;;;;23.08;11.10;;;;;;;7.55;100.00;102011.47;5075140;28;20028;-72
2023/04/16 02:18:25;;;;;;;23.55;10.77;;;;;;;7.53;100.00;102010.53;5074802;28;20112;-73
2023/04/16 02:20:50;;;;;;;23.50;10.50;;;;;;;7.58;100.00;102008.94;5074823;28;20047;-72
2023/04/16 02:23:16;;;;;;;23.90;10.77;;;;;;;7.54;100.00;102003.53;5074992;28;20079;-72
2023/04/16 02:25:43;;;;;;;22.85;10.48;;;;;;;7.54;100.00;102009.66;5075004;28;20387;-71
2023/04/16 02:28:13;;;;;;;23.52;10.82;;;;;;;7.50;100.00;102008.69;5069918;28;20106;-72
2023/04/16 02:30:39;;;;;;;22.83;10.85;;;;;;;7.54;100.00;102009.66;5070842;28;20059;-72
2023/04/16 02:33:07;;;;;;;23.15;10.65;;;;;;;7.54;100.00;102008.78;5074654;28;20375;-71
2023/04/16 02:35:33;;;;;;;23.17;10.63;;;;;;;7.52;100.00;102006.09;5074535;28;20029;-70
2023/04/16 02:37:59;;;;;;;23.95;10.95;;;;;;;7.57;100.00;102008.88;5074784;28;20020;-72
2023/04/16 02:40:25;;;;;;;21.55;10.30;;;;;;;7.56;100.00;102008.00;5074519;28;20399;-71
2023/04/16 02:42:50;;;;;;;21.85;9.50;;;;;;;7.56;100.00;102004.47;5074384;28;20060;-72
2023/04/16 02:45:16;;;;;;;21.92;9.63;;;;;;;7.58;100.00;102011.56;5074467;28;20052;-71
2023/04/16 02:47:41;;;;;;;20.98;9.40;;;;;;;7.58;100.00;102016.84;5074321;28;20040;-70
2023/04/16 02:50:07;;;;;;;21.38;8.65;;;;;;;7.62;100.00;102010.84;5074337;28;20025;-71
2023/04/16 02:52:32;;;;;;;21.33;8.38;;;;;;;7.62;100.00;102018.75;5074460;28;20157;-72
2023/04/16 02:54:58;;;;;;;20.67;8.02;;;;;;;7.61;100.00;102018.69;5074201;28;20464;-73
2023/04/16 02:57:24;;;;;;;21.05;8.35;;;;;;;7.58;100.00;102023.84;5074165;28;20543;-70
2023/04/16 02:59:49;;;;;;;21.63;8.02;;;;;;;7.60;100.00;102017.81;5074276;28;20033;-72
2023/04/16 03:02:15;;;;;;;21.45;8.50;;;;;;;7.56;100.00;102029.06;5072958;28;20056;-71
2023/04/16 03:04:41;;;;;;;21.13;8.43;;;;;;;7.58;100.00;102029.13;5074280;28;20031;-72
2023/04/16 03:07:07;;;;;;;21.38;8.18;;;;;;;7.54;100.00;102022.81;5074110;28;20478;-73
2023/04/16 03:09:33;;;;;;;23.63;8.80;;;;;;;7.60;100.00;102030.97;5073886;28;20033;-70
2023/04/16 03:11:58;;;;;;;20.30;8.07;;;;;;;7.64;100.00;102027.56;5074124;28;20475;-71
2023/04/16 03:14:24;;;;;;;21.67;8.65;;;;;;;7.58;100.00;102027.38;5074066;28;20036;-70
2023/04/16 03:16:49;;;;;;;20.88;8.50;;;;;;;7.56;100.00;102033.41;5073736;28;20035;-70
2023/04/16 03:19:15;;;;;;;21.58;8.88;;;;;;;7.53;100.00;102028.94;5073871;28;20033;-71
2023/04/16 03:21:40;;;;;;;22.02;9.00;;;;;;;7.55;100.00;102045.69;5073764;28;20491;-70
2023/04/16 03:24:05;;;;;;;23.45;9.75;;;;;;;7.56;100.00;102034.31;5073635;28;20025;-72
2023/04/16 03:26:31;;;;;;;22.50;9.55;;;;;;;7.62;100.00;102041.53;5073777;28;20146;-69
2023/04/16 03:28:56;;;;;;;22.45;8.93;;;;;;;7.60;100.00;102030.97;5073601;28;20031;-70
2023/04/16 03:31:25;;;;;;;22.60;9.38;;;;;;;7.56;100.00;102044.84;5073454;28;20029;-73
2023/04/16 03:33:50;;;;;;;23.70;10.65;;;;;;;7.64;100.00;102040.72;5073676;28;20109;-71
2023/04/16 03:36:16;;;;;;;24.23;10.75;;;;;;;7.57;100.00;102051.91;5073374;28;20056;-70
2023/04/16 03:38:41;;;;;;;22.33;10.70;;;;;;;7.58;100.00;102042.28;5073783;28;20374;-71
2023/04/16 03:41:06;;;;;;;22.13;10.10;;;;;;;7.57;100.00;102041.38;5073536;28;20078;-69
2023/04/16 03:43:32;;;;;;;22.80;11.13;;;;;;;7.60;100.00;102041.50;5073220;28;20031;-70
2023/04/16 03:45:57;;;;;;;24.52;11.68;;;;;;;7.60;100.00;102041.50;5073087;28;20040;-68
2023/04/16 03:48:22;;;;;;;24.35;12.10;;;;;;;7.55;100.00;102037.78;5073739;28;20079;-70
2023/04/16 03:50:48;;;;;;;24.42;12.75;;;;;;;7.58;100.00;102037.88;5073148;28;20153;-70
2023/04/16 03:53:13;;;;;;;25.52;13.00;;;;;;;7.57;100.00;102040.47;5073343;28;20068;-69
2023/04/16 03:55:40;;;;;;;25.65;13.52;;;;;;;7.57;100.00;102048.38;5067885;28;20024;-70
2023/04/16 03:58:05;;;;;;;24.73;13.10;;;;;;;7.52;100.00;102039.44;5072933;28;20056;-69
2023/04/16 04:00:31;;;;;;;25.05;13.23;;;;;;;7.48;100.00;102036.69;5073465;28;20063;-68
2023/04/16 04:02:56;;;;;;;28.58;14.82;;;;;;;7.49;100.00;102042.84;5072931;28;20021;-70
2023/04/16 04:05:21;;;;;;;28.08;15.05;;;;;;;7.48;100.00;102036.69;5073006;28;20048;-69
2023/04/16 04:07:47;;;;;;;25.40;14.48;;;;;;;7.42;100.00;102046.97;5073418;28;20040;-68
2023/04/16 04:10:12;;;;;;;27.05;14.98;;;;;;;7.45;100.00;102040.94;5072889;28;20482;-68
2023/04/16 04:12:38;;;;;;;29.27;15.40;;;;;;;7.47;100.00;102044.50;5072931;28;20082;-69
2023/04/16 04:15:04;;;;;;;27.23;14.40;;;;;;;7.46;100.00;102038.34;5073306;28;20083;-68
2023/04/16 04:17:29;;;;;;;26.75;15.20;;;;;;;7.46;100.00;102038.34;5072900;28;20040;-68
2023/04/16 04:19:54;;;;;;;27.77;15.07;;;;;;;7.44;100.00;102042.69;5072627;28;20430;-68
2023/04/16 04:22:20;;;;;;;26.13;14.57;;;;;;;7.45;100.00;102041.81;5071680;28;20107;-70
2023/04/16 04:24:45;;;;;;;27.98;15.30;;;;;;;7.40;100.00;102037.25;5072701;28;20039;-69
2023/04/16 04:27:10;;;;;;;26.10;14.18;;;;;;;7.45;100.00;102040.94;5072935;28;20028;-68
2023/04/16 04:29:36;;;;;;;26.42;14.23;;;;;;;7.37;100.00;102043.28;5071656;28;20505;-68
2023/04/16 04:32:01;;;;;;;25.30;13.35;;;;;;;7.43;100.00;102043.50;5072639;28;20491;-69
2023/04/16 04:34:26;;;;;;;25.98;14.40;;;;;;;7.38;100.00;102050.31;5072793;28;20029;-69
2023/04/16 04:36:52;;;;;;;26.50;14.15;;;;;;;7.43;100.00;102045.25;5072911;28;20024;-68
2023/04/16 04:39:20;;;;;;;26.83;15.27;;;;;;;7.40;100.00;102047.78;5072423;28;20032;-68
2023/04/16 04:41:46;;;;;;;25.80;13.73;;;;;;;7.43;100.00;102053.16;5072711;28;20032;-69
2023/04/16 04:44:11;;;;;;;28.98;14.25;;;;;;;7.41;100.00;102055.72;5072481;28;20025;-70
2023/04/16 04:46:36;;;;;;;28.55;15.02;;;;;;;7.35;100.00;102060.72;5072181;28;20559;-70
2023/04/16 04:49:03;;;;;;;25.92;14.18;;;;;;;7.36;100.00;102059.03;5071325;28;20102;-70
2023/04/16 04:51:29;;;;;;;26.75;14.40;;;;;;;7.39;100.00;102072.28;5074239;28;20041;-69
2023/04/16 04:53:54;;;;;;;25.05;13.95;;;;;;;7.37;100.00;102060.78;5076705;28;20059;-70
2023/04/16 04:56:20;;;;;;;26.13;13.55;;;;;;;7.42;100.00;102051.34;5076663;28;20036;-73
2023/04/16 04:58:45;;;;;;;27.00;13.80;;;;;;;7.37;100.00;102063.41;5076308;28;20028;-71
2023/04/16 05:01:10;;;;;;;27.17;13.40;;;;;;;7.40;100.00;102068.81;5076633;28;20039;-70
2023/04/16 05:03:36;;;;;;;25.25;13.68;;;;;;;7.39;100.00;102064.38;5076464;28;20059;-71
2023/04/16 05:06:01;;;;;;;27.40;14.65;;;;;;;7.40;100.00;102066.19;5076137;28;20360;-72
2023/04/16 05:08:26;;;;;;;27.38;14.82;;;;;;;7.40;100.00;102068.81;5076206;28;20027;-73
2023/04/16 05:10:52;;;;;;;28.23;15.20;;;;;;;7.42;100.00;102065.38;5076285;28;20036;-73
2023/04/16 05:13:17;;;;;;;28.98;15.13;;;;;;;7.42;100.00;102070.66;5076176;28;20093;-71
2023/04/16 05:15:44;;;;;;;26.35;14.70;;;;;;;7.38;100.00;102067.84;5076294;28;20052;-72
2023/04/16 05:18:09;;;;;;;26.98;14.95;;;;;;;7.36;100.00;102072.16;5074990;28;20509;-70
2023/04/16 05:20:36;;;;;;;26.80;13.85;;;;;;;7.36;100.00;102069.53;5075795;28;20020;-71
2023/04/16 05:23:02;;;;;;;27.27;13.98;;;;;;;7.39;100.00;102078.44;5076101;28;20070;-73
2023/04/16 05:25:27;;;;;;;27.83;13.77;;;;;;;7.42;100.00;102075.03;5076147;28;20102;-70
2023/04/16 05:27:53;;;;;;;26.60;13.45;;;;;;;7.42;100.00;102073.28;5075843;28;20494;-71
2023/04/16 05:30:18;;;;;;;27.25;13.75;;;;;;;7.39;100.00;102080.19;5076181;28;20035;-69
2023/04/16 05:32:43;;;;;;;28.13;13.93;;;;;;;7.37;100.00;102079.19;5075754;28;20536;-70
2023/04/16 05:35:09;;;;;;;27.70;14.25;;;;;;;7.42;100.00;102086.44;5075658;28;20067;-73
2023/04/16 05:37:35;;;;;;;27.05;13.20;;;;;;;7.42;100.00;102080.28;5075782;28;20376;-72
2023/04/16 05:40:01;;;;;;;26.45;13.35;;;;;;;7.44;100.00;102089.13;5075577;28;20036;-73
2023/04/16 05:42:26;;;;;;;26.35;13.45;;;;;;;7.40;100.00;102088.13;5075577;28;20071;-72
2023/04/16 05:44:51;;;;;;;29.10;14.10;;;;;;;7.47;100.00;102097.13;5075698;28;20428;-73
2023/04/16 05:47:17;;;;;;;26.95;13.38;;;;;;;7.47;100.00;102097.13;5075925;28;20483;-73
2023/04/16 05:49:42;;;;;;;28.45;14.00;;;;;;;7.46;100.00;102097.97;5075373;28;20048;-72
2023/04/16 05:52:08;;;;;;;28.45;14.52;;;;;;;7.54;100.00;102099.13;5075559;28;20024;-73
2023/04/16 05:54:34;;;;;;;29.05;14.80;;;;;;;7.48;100.00;102099.84;5075295;28;20028;-73
2023/04/16 05:57:00;;;;;;;28.52;14.38;;;;;;;7.52;100.00;102108.72;5075152;28;20039;-73
2023/04/16 05:59:26;;;;;;;26.88;13.85;;;;;;;7.47;100.00;102107.66;5075389;28;20087;-73
2023/04/16 06:01:51;;;;;;;28.15;14.60;;;;;;;7.52;100.00;102106.09;5074673;28;20171;-73
2023/04/16 06:04:16;;;;;;;28.90;14.32;;;;;;;7.55;100.00;102110.59;5074653;28;20475;-72
2023/04/16 06:06:42;;;;;;;27.40;14.75;;;;;;;7.54;100.00;102114.03;5075085;28;20364;-73
2023/04/16 06:09:07;;;;;;;27.52;15.15;;;;;;;7.49;100.00;102106.88;5074938;28;20036;-72
2023/04/16 06:11:33;;;;;;;28.10;14.30;;;;;;;7.55;100.00;102107.94;5075222;28;20037;-72
2023/04/16 06:13:58;;;;;;;29.35;14.82;;;;;;;7.56;100.00;102114.97;5075156;28;20040;-72
2023/04/16 06:16:23;;;;;;;28.23;15.05;;;;;;;7.58;100.00;102116.84;5074986;28;20025;-72
2023/04/16 06:18:49;;;;;;;29.05;15.57;;;;;;;7.57;100.00;102109.81;5075067;28;20116;-72
2023/04/16 06:21:15;;;;;;;29.67;15.68;;;;;;;7.59;100.00;102109.88;5074787;28;20028;-72
2023/04/16 06:23:40;;;;;;;29.48;15.18;;;;;;;7.59;100.00;102112.50;5074814;28;20493;-72
2023/04/16 06:26:05;;;;;;;28.15;14.90;;;;;;;7.61;100.00;102113.44;5074868;28;20036;-72
2023/04/16 06:28:31;;;;;;;27.08;14.90;;;;;;;7.63;100.00;102122.28;5074665;28;20136;-72
2023/04/16 06:30:56;;;;;;;28.73;14.95;;;;;;;7.61;100.00;102111.69;5074610;28;20033;-73
2023/04/16 06:33:22;;;;;;;28.70;15.57;;;;;;;7.63;100.00;102122.28;5074341;28;20028;-72
2023/04/16 06:35:47;;;;;;;29.13;15.40;;;;;;;7.69;100.00;102127.78;5074826;28;20113;-68
2023/04/16 06:38:13;;;;;;;29.02;14.88;;;;;;;7.71;100.00;102125.19;5074624;28;20060;-70
2023/04/16 06:40:38;;;;;;;27.33;14.52;;;;;;;7.76;100.00;102126.25;5074912;28;20086;-71
2023/04/16 06:43:04;;;;;;;27.63;14.70;;;;;;;7.77;100.00;102134.19;5074465;28;20056;-68
2023/04/16 06:45:30;;;;;;;26.98;14.77;;;;;;;7.78;100.00;102137.75;5074544;28;20099;-69
2023/04/16 06:47:57;;;;;;;29.02;14.70;;;;;;;7.78;100.00;102138.63;5074129;28;20044;-68
2023/04/16 06:50:23;;;;;;;28.35;14.55;;;;;;;7.80;100.00;102139.56;5074299;28;20036;-68
2023/04/16 06:52:49;;;;;;;28.30;14.93;;;;;;;7.81;100.00;102145.75;5074388;28;20537;-68
2023/04/16 06:55:14;;;;;;;29.77;15.85;;;;;;;7.82;100.00;102145.81;5074270;28;20536;-69
2023/04/16 06:57:40;;;;;;;31.45;15.98;;;;;;;7.81;100.00;102145.75;5074050;28;20031;-68
2023/04/16 07:00:06;;;;;;;28.05;15.23;;;;;;;7.85;100.00;102153.81;5074399;28;20450;-69
2023/04/16 07:02:31;;;;;;;28.63;15.50;;;;;;;7.87;100.00;102153.88;5074282;28;20060;-69
2023/04/16 07:04:56;;;;;;;27.88;15.23;;;;;;;7.93;100.00;102156.72;5074003;28;20028;-69
2023/04/16 07:07:22;;;;;;;29.45;15.57;;;;;;;7.94;100.00;102155.00;5072930;28;20089;-68
2023/04/16 07:09:47;;;;;;;29.75;15.25;;;;;;;7.98;100.00;102159.50;5074088;28;20028;-69
2023/04/16 07:12:12;;;;;;;30.30;15.35;;;;;;;7.92;100.00;102160.22;5074126;28;20081;-68
2023/04/16 07:14:38;;;;;;;29.52;14.85;;;;;;;7.96;100.00;102167.34;5073737;28;20107;-69
2023/04/16 07:17:03;;;;;;;30.45;15.73;;;;;;;7.92;100.00;102165.47;5073687;28;20044;-68
2023/04/16 07:19:31;;;;;;;29.65;16.33;;;;;;;7.93;100.00;102176.91;5073571;28;20071;-71
2023/04/16 07:21:59;;;;;;;30.17;15.88;;;;;;;7.95;100.00;102176.13;5073720;28;20107;-69
2023/04/16 07:24:25;;;;;;;29.75;15.73;;;;;;;8.00;100.00;102174.53;5073759;28;20162;-68
2023/04/16 07:26:50;;;;;;;30.40;15.98;;;;;;;8.03;100.00;102172.00;5073781;28;20478;-68
2023/04/16 07:29:16;;;;;;;31.95;16.23;;;;;;;8.06;100.00;102178.25;5074019;28;20036;-68
2023/04/16 07:31:41;;;;;;;30.65;16.90;;;;;;;8.02;100.00;102177.22;5072253;28;20110;-69
2023/04/16 07:34:06;;;;;;;32.53;16.67;;;;;;;7.99;100.00;102175.41;5073563;28;20033;-69
2023/04/16 07:36:32;;;;;;;34.53;17.58;;;;;;;7.98;100.00;102181.50;5073356;28;20078;-68
2023/04/16 07:38:57;;;;;;;33.63;17.25;;;;;;;8.01;100.00;102176.34;5073536;28;20103;-69
2023/04/16 07:41:22;;;;;;;31.75;16.88;;;;;;;8.02;100.00;102183.41;5073371;28;20036;-69
2023/04/16 07:43:48;;;;;;;31.80;16.50;;;;;;;8.05;100.00;102192.25;5073270;28;20352;-68
2023/04/16 07:46:13;;;;;;;33.03;17.58;;;;;;;8.06;100.00;102199.31;5071826;28;20097;-69
2023/04/16 07:48:39;;;;;;;33.63;17.02;;;;;;;8.07;100.00;102185.28;5073296;28;20025;-68
2023/04/16 07:51:04;;;;;;;34.47;17.38;;;;;;;8.08;100.00;102197.63;5073065;28;20033;-69
2023/04/16 07:53:29;;;;;;;34.08;17.65;;;;;;;8.10;100.00;102188.94;5073032;28;20048;-68
2023/04/16 07:55:55;;;;;;;34.03;17.42;;;;;;;8.12;100.00;102200.41;5073216;28;20024;-68
2023/04/16 07:58:20;;;;;;;34.08;17.38;;;;;;;8.10;100.00;102201.22;5072991;28;20115;-69
2023/04/16 08:00:45;;;;;;;33.05;18.17;;;;;;;8.14;100.00;102208.38;5072969;28;20032;-69
2023/04/16 08:03:11;;;;;;;35.97;18.23;;;;;;;8.20;100.00;102201.59;5073115;28;20472;-69
2023/04/16 08:05:36;;;;;;;34.00;17.88;;;;;;;8.23;100.00;102203.44;5072879;28;20041;-68
2023/04/16 08:08:01;;;;;;;33.42;17.77;;;;;;;8.23;100.00;102211.34;5073004;28;20056;-68
2023/04/16 08:10:27;;;;;;;33.75;18.15;;;;;;;8.29;100.00;102213.31;5072835;28;20093;-68
2023/04/16 08:12:53;;;;;;;33.20;17.98;;;;;;;8.32;100.00;102213.41;5073004;28;20055;-68
2023/04/16 08:15:18;;;;;;;33.72;18.27;;;;;;;8.35;100.00;102219.66;5072815;28;20480;-69
2023/04/16 08:17:44;;;;;;;34.83;18.20;;;;;;;8.37;100.00;102222.38;5073035;28;20068;-68
2023/04/16 08:20:10;;;;;;;34.65;18.15;;;;;;;8.37;100.00;102222.38;5072485;28;20081;-69
2023/04/16 08:22:35;;;;;;;35.22;17.88;;;;;;;8.38;100.00;102230.31;5072884;28;20483;-68
2023/04/16 08:25:02;;;;;;;33.47;17.92;;;;;;;8.34;100.00;102233.72;5072326;28;20032;-69
2023/04/16 08:27:27;;;;;;;35.47;17.92;;;;;;;8.38;100.00;102235.59;5072074;28;20493;-68
2023/04/16 08:29:53;;;;;;;34.97;19.23;;;;;;;8.45;100.00;102227.97;5072869;28;20020;-69
2023/04/16 08:32:18;;;;;;;33.88;18.20;;;;;;;8.43;100.00;102235.78;5072568;28;20521;-72
2023/04/16 08:34:43;;;;;;;37.58;19.25;;;;;;;8.43;100.00;102237.50;5071318;28;20498;-70
2023/04/16 08:37:09;;;;;;;35.90;19.20;;;;;;;8.47;100.00;102239.44;5072699;28;20025;-70
2023/04/16 08:39:34;;;;;;;35.78;17.67;;;;;;;8.54;100.00;102236.16;5072384;28;20476;-70
2023/04/16 08:42:03;;;;;;;33.75;17.92;;;;;;;8.45;100.00;102238.50;5072342;28;20104;-69
2023/04/16 08:44:36;;;;;;;34.78;17.95;;;;;;;8.46;100.00;102235.00;5072607;28;20215;-73
2023/04/16 08:47:02;;;;;;;34.42;18.27;;;;;;;8.48;100.00;102243.88;5072258;28;20467;-71
2023/04/16 08:49:28;;;;;;;35.28;17.80;;;;;;;8.47;100.00;102240.31;5072417;28;20028;-72
2023/04/16 08:51:54;;;;;;;33.03;17.35;;;;;;;8.52;100.00;102248.41;5072719;28;20036;-70
2023/04/16 08:54:45;;;;;;;33.78;18.38;;;;;;;8.59;100.00;102245.16;5072445;28;20032;-71
2023/04/16 08:57:14;;;;;;;33.38;17.42;;;;;;;8.62;100.00;102253.16;5072383;28;20032;-70
2023/04/16 08:59:44;;;;;;;34.45;18.67;;;;;;;8.64;100.00;102246.19;5072128;28;20024;-73
2023/04/16 09:02:11;;;;;;;34.10;18.33;;;;;;;8.69;100.00;102252.53;5072208;28;20494;-72
2023/04/16 09:04:37;;;;;;;35.50;18.38;;;;;;;8.78;100.00;102256.31;5072399;28;20066;-71
2023/04/16 09:07:05;;;;;;;34.60;17.98;;;;;;;8.78;100.00;102253.69;5072200;28;20047;-69
2023/04/16 09:09:32;;;;;;;34.63;17.85;;;;;;;8.83;100.00;102260.00;5072195;28;20021;-72
2023/04/16 09:11:58;;;;;;;32.53;17.30;;;;;;;8.85;100.00;102263.59;5072214;28;20422;-70
2023/04/16 09:14:24;;;;;;;34.78;18.00;;;;;;;8.92;100.00;102259.44;5072193;28;20033;-72
2023/04/16 09:16:53;;;;;;;33.67;17.75;;;;;;;8.94;100.00;102263.00;5072023;28;20467;-73
2023/04/16 09:19:18;;;;;;;33.05;17.17;;;;;;;8.97;100.00;102261.38;5072256;28;20115;-70
2023/04/16 09:21:46;;;;;;;34.70;18.48;;;;;;;9.00;100.00;102269.41;5072077;28;20108;-70
2023/04/16 09:24:12;;;;;;;34.70;17.98;;;;;;;9.05;100.00;102267.78;5072076;28;20028;-70
2023/04/16 09:26:37;;;;;;;34.35;17.80;;;;;;;9.06;100.00;102266.94;5072182;28;20520;-69
2023/04/16 09:29:03;;;;;;;31.88;17.00;;;;;;;9.08;100.00;102267.00;5072238;28;20029;-70
2023/04/16 09:31:28;;;;;;;33.42;17.42;;;;;;;9.15;100.00;102268.09;5071941;28;20021;-73
2023/04/16 09:34:05;;;;;;;34.13;17.35;;;;;;;9.18;100.00;102274.38;5072206;28;20039;-71
2023/04/16 09:36:34;;;;;;;35.20;17.30;;;;;;;9.19;100.00;102283.19;5072116;28;20025;-73
2023/04/16 09:39:00;;;;;;;33.13;17.80;;;;;;;9.16;100.00;102285.72;5075609;28;20119;-70
2023/04/16 09:41:27;;;;;;;33.80;17.02;;;;;;;9.17;100.00;102287.50;5075692;28;20112;-70
2023/04/16 09:43:56;;;;;;;34.70;17.27;;;;;;;9.14;100.00;102290.06;5075505;28;20021;-70
2023/04/16 09:46:28;;;;;;;32.15;16.58;;;;;;;9.16;100.00;102288.34;5075221;28;20048;-68
2023/04/16 09:48:54;;;;;;;33.42;16.70;;;;;;;9.18;100.00;102287.56;5075453;28;20029;-70
2023/04/16 09:51:19;;;;;;;32.55;17.40;;;;;;;9.16;100.00;102291.00;5075407;28;20038;-70
2023/04/16 09:53:44;;;;;;;33.28;17.50;;;;;;;9.16;100.00;102294.53;5075351;28;20024;-71
2023/04/16 09:56:10;;;;;;;32.53;17.00;;;;;;;9.14;100.00;102298.84;5075596;28;20029;-71
2023/04/16 09:58:37;;;;;;;34.60;17.65;;;;;;;9.15;100.00;102297.13;5075107;28;20032;-69
2023/04/16 10:01:06;;;;;;;33.30;17.25;;;;;;;9.13;100.00;102299.72;5075240;28;20125;-69
2023/04/16 10:03:32;;;;;;;33.13;17.65;;;;;;;9.15;100.00;102292.75;5075575;28;20440;-70
2023/04/16 10:06:20;;;;;;;33.45;17.10;;;;;;;9.17;100.00;102298.06;5075205;28;20028;-70
2023/04/16 10:08:51;;;;;;;33.42;16.55;;;;;;;9.19;100.00;102299.03;5071563;28;20035;-70
2023/04/16 10:11:18;;;;;;;32.80;17.58;;;;;;;9.16;100.00;102297.19;5071397;28;20024;-70
2023/04/16 10:13:43;;;;;;;33.00;17.55;;;;;;;9.22;100.00;102301.78;5070841;28;20037;-69
2023/04/16 10:16:10;;;;;;;34.22;17.15;;;;;;;9.21;100.00;102292.94;5075233;28;20024;-69
2023/04/16 10:18:37;;;;;;;32.72;17.63;;;;;;;9.21;100.00;102298.22;5074794;28;20028;-70
2023/04/16 10:21:03;;;;;;;32.35;17.38;;;;;;;9.23;100.00;102298.25;5074844;28;20020;-70
2023/04/16 10:23:29;;;;;;;32.75;18.13;;;;;;;9.21;100.00;102292.06;5075034;28;20475;-69
2023/04/16 10:25:55;;;;;;;31.98;17.65;;;;;;;9.15;100.00;102302.41;5074879;28;20027;-69
2023/04/16 10:28:22;;;;;;;30.98;17.85;;;;;;;9.16;100.00;102301.53;5074811;28;20035;-70
2023/04/16 10:30:52;;;;;;;31.77;17.80;;;;;;;9.15;100.00;102305.94;5074972;28;20028;-70
2023/04/16 10:33:22;;;;;;;33.88;17.92;;;;;;;9.13;100.00;102301.44;5071060;28;20033;-70
2023/04/16 10:35:49;;;;;;;32.00;17.55;;;;;;;9.14;100.00;102313.81;5071198;28;20023;-69
2023/04/16 10:38:26;;;;;;;31.15;17.30;;;;;;;9.17;100.00;102314.78;5070850;28;20028;-70
2023/04/16 10:41:11;;;;;;;31.52;17.45;;;;;;;9.26;100.00;102308.91;5071682;28;20021;-72
2023/04/16 10:43:46;;;;;;;32.00;17.48;;;;;;;9.17;100.00;102308.63;5074149;28;20049;-69
2023/04/16 10:46:19;;;;;;;31.83;18.23;;;;;;;9.16;100.00;102307.72;5074258;28;20097;-69
2023/04/16 10:48:45;;;;;;;32.97;18.90;;;;;;;9.17;100.00;102313.91;5069718;28;20123;-69
2023/04/16 10:51:23;;;;;;;31.30;17.50;;;;;;;9.25;100.00;102315.06;5074471;28;20048;-70
2023/04/16 10:53:49;;;;;;;32.63;17.67;;;;;;;9.17;100.00;102313.91;5071139;28;20053;-70
2023/04/16 10:56:21;;;;;;;34.08;18.25;;;;;;;9.16;100.00;102320.00;5070300;28;20534;-69
2023/04/16 10:58:49;;;;;;;31.88;18.23;;;;;;;9.24;100.00;102314.13;5070277;28;20056;-70
2023/04/16 11:01:15;;;;;;;32.80;18.63;;;;;;;9.28;100.00;102320.44;5070409;28;20112;-69
2023/04/16 11:03:47;;;;;;;31.30;17.90;;;;;;;9.28;100.00;102317.78;5074334;28;20136;-70
2023/04/16 11:06:22;;;;;;;29.53;16.67;;;;;;;9.30;100.00;102313.44;5073994;28;20479;-69
2023/04/16 11:08:50;;;;;;;30.80;17.98;;;;;;;9.29;100.00;102308.13;5070386;28;20032;-70